Time;durP1;ratioP1;P1;durP2;ratioP2;P2;SDS_P1;SDS_P2;PMS_P1;PMS_P2;Temp;Humidity;BMP_temperature;BMP_pressure;BME280_temperature;BME280_humidity;BME280_pressure;Samples;Min_cycle;Max_cycle;Signal;HPM_P1;HPM_P2
2022/04/26 03:36:42;;;;;;;;;;;;;;;0.33;100.00;98267.16;3191247;23;19924;-77
2022/04/26 03:37:57;;;;;;;;;;;;;;;0.25;100.00;98268.78;3191377;23;20413;-77
2022/04/26 03:39:12;;;;;;;;;;;;;;;0.15;100.00;98266.97;3191440;23;19924;-77
2022/04/26 03:40:28;;;;;;;;;;;;;;;0.12;100.00;98262.66;3202637;22;19923;-78
2022/04/26 03:41:44;;;;;;;;;;;;;;;0.20;100.00;98262.72;3223987;22;19923;-77
2022/04/26 03:42:59;;;;;;;;;;;;;;;0.21;100.00;98264.47;3223912;23;19943;-77
2022/04/26 03:44:15;;;;;;;;;;;;;;;0.21;100.00;98261.88;3223383;22;20390;-77
2022/04/26 03:45:30;;;;;;;;;;;;;;;0.22;100.00;98261.91;3223134;22;19998;-76
2022/04/26 03:46:46;;;;;;;;;;;;;;;0.19;100.00;98259.28;3223877;23;20309;-77
2022/04/26 03:48:01;;;;;;;;;;;;;;;0.12;100.00;98263.50;3224095;22;19924;-77
2022/04/26 03:49:17;;;;;;;;;;;;;;;0.08;100.00;98266.88;3223403;23;20474;-76
2022/04/26 03:50:32;;;;;;;;;;;;;;;0.10;100.00;98269.50;3223669;22;19931;-77
2022/04/26 03:51:48;;;;;;;;;;;;;;;0.19;100.00;98264.44;3224197;22;19923;-77
2022/04/26 03:53:03;;;;;;;;;;;;;;;0.25;100.00;98267.09;3223600;22;19923;-77
2022/04/26 03:54:20;;;;;;;;;;;;;;;0.35;100.00;98265.47;3223903;22;19924;-77
2022/04/26 03:55:35;;;;;;;;;;;;;;;0.47;100.00;98269.84;3223221;22;19927;-76
2022/04/26 03:56:51;;;;;;;;;;;;;;;0.39;100.00;98272.34;3223745;22;19965;-76
2022/04/26 03:58:06;;;;;;;;;;;;;;;0.36;100.00;98274.91;3223856;22;19954;-77
2022/04/26 03:59:21;;;;;;;;;;;;;;;0.23;100.00;98267.91;3224153;23;19930;-77
2022/04/26 04:00:38;;;;;;;;;;;;;;;0.24;100.00;98279.94;3223746;22;20022;-77
2022/04/26 04:01:53;;;;;;;;;;;;;;;0.27;100.00;98273.09;3222954;22;19924;-77
2022/04/26 04:03:09;;;;;;;;;;;;;;;0.19;100.00;98276.44;3223172;22;19924;-77
2022/04/26 04:04:24;;;;;;;;;;;;;;;0.13;100.00;98277.25;3223563;22;19986;-77
2022/04/26 04:05:42;;;;;;;;;;;;;;;0.11;100.00;98278.94;3223413;23;19926;-77
2022/04/26 04:06:57;;;;;;;;;;;;;;;0.16;100.00;98281.56;3224089;22;19923;-78
2022/04/26 04:08:13;;;;;;;;;;;;;;;0.18;100.00;98285.88;3223888;23;19952;-77
2022/04/26 04:09:28;;;;;;;;;;;;;;;0.24;100.00;98287.66;3223290;22;20276;-78
2022/04/26 04:10:44;;;;;;;;;;;;;;;0.25;100.00;98289.38;3223843;23;19931;-76
2022/04/26 04:11:59;;;;;;;;;;;;;;;0.21;100.00;98290.19;3223419;23;19929;-76
2022/04/26 04:13:16;;;;;;;;;;;;;;;0.28;100.00;98300.59;3224045;23;19928;-77
2022/04/26 04:14:31;;;;;;;;;;;;;;;0.29;100.00;98306.63;3224224;22;19931;-77
2022/04/26 04:15:47;;;;;;;;;;;;;;;0.36;100.00;98304.97;3224384;23;20738;-77
2022/04/26 04:17:03;;;;;;;;;;;;;;;0.35;100.00;98300.63;3224252;22;19928;-77
2022/04/26 04:19:52;;;;;;;;;;;;;;;0.32;100.00;98300.63;3223453;23;19931;-77
2022/04/26 04:21:08;;;;;;;;;;;;;;;0.29;100.00;98301.47;3223562;22;20331;-76
2022/04/26 04:22:24;;;;;;;;;;;;;;;0.27;100.00;98301.44;3223484;22;19923;-78
2022/04/26 04:23:40;;;;;;;;;;;;;;;0.31;100.00;98307.50;3223807;23;19970;-77
2022/04/26 04:24:55;;;;;;;;;;;;;;;0.35;100.00;98301.50;3224321;22;20041;-78
2022/04/26 04:26:11;;;;;;;;;;;;;;;0.39;100.00;98302.41;3223281;22;19981;-79
2022/04/26 04:27:26;;;;;;;;;;;;;;;0.34;100.00;98302.38;3223940;23;20304;-77
2022/04/26 04:28:42;;;;;;;;;;;;;;;0.33;100.00;98308.38;3223914;23;19920;-77
2022/04/26 04:30:02;;;;;;;;;;;;;;;0.39;100.00;98298.13;3223768;23;19926;-78
2022/04/26 04:31:17;;;;;;;;;;;;;;;0.53;100.00;98303.44;3223873;22;19930;-77
2022/04/26 04:32:33;;;;;;;;;;;;;;;0.50;100.00;98305.09;3223710;23;19959;-77
2022/04/26 04:33:48;;;;;;;;;;;;;;;0.50;100.00;98294.78;3223714;23;19984;-77
2022/04/26 04:35:04;;;;;;;;;;;;;;;0.51;100.00;98299.09;3224147;22;19923;-76
2022/04/26 04:36:20;;;;;;;;;;;;;;;0.54;100.00;98294.84;3223777;22;20370;-77
2022/04/26 04:37:35;;;;;;;;;;;;;;;0.47;100.00;98300.78;3223002;23;19923;-77
2022/04/26 04:38:51;;;;;;;;;;;;;;;0.51;100.00;98304.25;3223614;23;20295;-77
2022/04/26 04:40:06;;;;;;;;;;;;;;;0.48;100.00;98307.66;3223772;22;19935;-77
2022/04/26 04:41:22;;;;;;;;;;;;;;;0.45;100.00;98304.19;3223831;22;19942;-77
2022/04/26 04:42:38;;;;;;;;;;;;;;;0.52;100.00;98305.97;3223393;22;19924;-77
2022/04/26 04:43:53;;;;;;;;;;;;;;;0.46;100.00;98303.34;3223517;22;19931;-77
2022/04/26 04:45:09;;;;;;;;;;;;;;;0.44;100.00;98303.31;3223745;23;19930;-77
2022/04/26 04:46:24;;;;;;;;;;;;;;;0.40;100.00;98304.16;3223548;22;19930;-78
2022/04/26 04:47:40;;;;;;;;;;;;;;;0.44;100.00;98318.78;3223815;22;19934;-80
2022/04/26 04:48:55;;;;;;;;;;;;;;;0.37;100.00;98312.69;3223492;22;19923;-80
2022/04/26 04:50:10;;;;;;;;;;;;;;;0.37;100.00;98307.53;3223490;23;19951;-77
2022/04/26 04:51:26;;;;;;;;;;;;;;;0.41;100.00;98311.88;3223924;22;19923;-77
2022/04/26 04:52:42;;;;;;;;;;;;;;;0.50;100.00;98316.28;3223556;22;19930;-79
2022/04/26 04:53:57;;;;;;;;;;;;;;;0.66;100.00;98311.28;3223675;23;19931;-77
2022/04/26 04:55:12;;;;;;;;;;;;;;;0.81;100.00;98314.00;3223951;23;19927;-77
2022/04/26 04:56:28;;;;;;;;;;;;;;;0.83;100.00;98311.41;3223606;22;19919;-77
2022/04/26 04:57:43;;;;;;;;;;;;;;;0.90;100.00;98313.22;3223334;23;19926;-76
2022/04/26 04:58:59;;;;;;;;;;;;;;;0.95;100.00;98314.09;3223309;23;19926;-76
2022/04/26 05:00:14;;;;;;;;;;;;;;;1.04;100.00;98310.72;3223592;22;19941;-78
2022/04/26 05:01:30;;;;;;;;;;;;;;;1.12;100.00;98316.84;3223416;23;19928;-78
2022/04/26 05:02:45;;;;;;;;;;;;;;;1.15;100.00;98316.00;3223269;23;19924;-81
2022/04/26 05:04:01;;;;;;;;;;;;;;;1.13;100.00;98310.81;3223713;22;20243;-78
2022/04/26 05:05:16;;;;;;;;;;;;;;;1.08;100.00;98314.22;3223125;23;19923;-77
2022/04/26 05:06:32;;;;;;;;;;;;;;;1.17;100.00;98319.44;3223682;22;20368;-79
2022/04/26 05:07:47;;;;;;;;;;;;;;;1.20;100.00;98319.47;3223942;22;20089;-77
2022/04/26 05:09:03;;;;;;;;;;;;;;;1.24;100.00;98325.53;3223519;22;19959;-78
2022/04/26 05:10:18;;;;;;;;;;;;;;;1.24;100.00;98323.78;3223488;23;20045;-78
2022/04/26 05:11:34;;;;;;;;;;;;;;;1.26;100.00;98314.38;3223059;22;20019;-83
2022/04/26 05:12:49;;;;;;;;;;;;;;;1.31;100.00;98326.44;3222933;23;20107;-83
2022/04/26 05:14:05;;;;;;;;;;;;;;;1.40;100.00;98326.50;3223831;23;19925;-84
2022/04/26 05:15:20;;;;;;;;;;;;;;;1.49;100.00;98326.53;3223622;23;19935;-85
2022/04/26 05:16:36;;;;;;;;;;;;;;;1.60;100.00;98324.03;3223690;23;19931;-80
2022/04/26 05:17:51;;;;;;;;;;;;;;;1.71;100.00;98321.53;3223488;22;19927;-80
2022/04/26 05:19:07;;;;;;;;;;;;;;;1.68;100.00;98327.53;3223171;22;19943;-79
2022/04/26 05:20:22;;;;;;;;;;;;;;;1.74;100.00;98328.41;3223360;23;20026;-80
2022/04/26 05:21:38;;;;;;;;;;;;;;;1.77;100.00;98326.72;3223627;22;19974;-80
2022/04/26 05:26:01;;;;;;;;;;;;;;;1.81;100.00;98325.03;3224098;23;20207;-80
2022/04/26 05:27:17;;;;;;;;;;;;;;;1.85;100.00;98328.50;3223727;22;19924;-79
2022/04/26 05:28:32;;;;;;;;;;;;;;;1.87;100.00;98327.63;3223798;23;19923;-80
2022/04/26 05:29:48;;;;;;;;;;;;;;;1.92;100.00;98322.50;3223846;23;19924;-79
2022/04/26 05:31:03;;;;;;;;;;;;;;;2.01;100.00;98325.13;3223635;22;19927;-80
2022/04/26 05:32:22;;;;;;;;;;;;;;;2.07;100.00;98325.13;3222863;23;19919;-79
2022/04/26 05:33:37;;;;;;;;;;;;;;;2.03;100.00;98318.25;3224349;22;19919;-79
2022/04/26 05:34:57;;;;;;;;;;;;;;;1.93;100.00;98321.63;3223972;22;19931;-81
2022/04/26 05:36:12;;;;;;;;;;;;;;;1.94;100.00;98320.78;3223528;22;19943;-79
2022/04/26 05:37:30;;;;;;;;;;;;;;;2.00;100.00;98322.53;3223933;23;19930;-80
2022/04/26 05:38:46;;;;;;;;;;;;;;;1.93;99.97;98321.63;3223907;22;20402;-81
2022/04/26 05:40:02;;;;;;;;;;;;;;;2.01;100.00;98319.97;3223857;23;19923;-80
2022/04/26 05:41:17;;;;;;;;;;;;;;;2.06;100.00;98323.41;3223825;22;20322;-80
2022/04/26 05:42:36;;;;;;;;;;;;;;;2.07;100.00;98325.13;3223675;23;19947;-80
2022/04/26 05:43:51;;;;;;;;;;;;;;;2.11;100.00;98315.69;3223776;22;20379;-80
2022/04/26 05:45:07;;;;;;;;;;;;;;;2.22;100.00;98318.31;3223976;23;19923;-81
2022/04/26 05:46:22;;;;;;;;;;;;;;;2.22;100.00;98326.06;3224056;22;19930;-79
2022/04/26 05:47:41;;;;;;;;;;;;;;;2.26;100.00;98322.66;3224158;23;19923;-79
2022/04/26 05:48:56;;;;;;;;;;;;;;;2.33;100.00;98318.38;3224062;22;19930;-79
2022/04/26 05:50:12;;;;;;;;;;;;;;;2.42;100.00;98315.78;3223912;23;19989;-80
2022/04/26 05:51:27;;;;;;;;;;;;;;;2.46;100.00;98312.38;3223836;23;19919;-80
2022/04/26 05:52:43;;;;;;;;;;;;;;;2.52;100.00;98317.53;3224132;23;19999;-79
2022/04/26 05:53:58;;;;;;;;;;;;;;;2.54;100.00;98320.16;3224062;22;20720;-83
2022/04/26 05:55:14;;;;;;;;;;;;;;;2.66;99.56;98317.59;3223882;23;20007;-79
2022/04/26 05:56:29;;;;;;;;;;;;;;;2.70;99.84;98318.44;3223999;22;19924;-81
2022/04/26 05:57:45;;;;;;;;;;;;;;;2.61;99.52;98315.84;3224165;23;19998;-81
2022/04/26 05:59:01;;;;;;;;;;;;;;;2.70;99.87;98315.84;3224194;22;19927;-79
2022/04/26 06:00:16;;;;;;;;;;;;;;;2.78;99.72;98314.16;3224304;22;19927;-84
2022/04/26 06:01:32;;;;;;;;;;;;;;;2.84;99.65;98315.88;3223781;23;19923;-80
2022/04/26 06:02:49;;;;;;;;;;;;;;;2.90;99.67;98313.28;3224065;23;20346;-81
2022/04/26 06:04:05;;;;;;;;;;;;;;;2.85;99.23;98320.19;3224087;22;19919;-80
2022/04/26 06:05:21;;;;;;;;;;;;;;;2.94;99.69;98319.34;3224044;22;20441;-80
2022/04/26 06:06:36;;;;;;;;;;;;;;;3.01;98.88;98318.50;3224092;22;19977;-80
2022/04/26 06:07:52;;;;;;;;;;;;;;;3.04;97.62;98315.03;3223913;23;20010;-80
2022/04/26 06:09:07;;;;;;;;;;;;;;;3.07;96.59;98310.72;3224551;22;19934;-80
2022/04/26 06:10:22;;;;;;;;;;;;;;;3.10;96.74;98309.88;3225059;22;20003;-80
2022/04/26 06:11:38;;;;;;;;;;;;;;;3.17;96.58;98315.91;3224443;22;19930;-79
2022/04/26 06:12:54;;;;;;;;;;;;;;;3.19;97.66;98309.84;3225247;22;19930;-80
2022/04/26 06:14:09;;;;;;;;;;;;;;;3.16;98.12;98309.84;3224693;23;20255;-79
2022/04/26 06:15:24;;;;;;;;;;;;;;;3.10;98.02;98315.03;3224981;23;19931;-80
2022/04/26 06:16:40;;;;;;;;;;;;;;;3.10;98.93;98315.88;3224869;22;20643;-80
2022/04/26 06:17:56;;;;;;;;;;;;;;;3.08;98.30;98317.63;3224807;22;20079;-80
2022/04/26 06:19:11;;;;;;;;;;;;;;;3.09;97.87;98319.34;3225083;23;19930;-79
2022/04/26 06:20:26;;;;;;;;;;;;;;;3.09;97.61;98316.75;3225062;22;19924;-81
2022/04/26 06:21:42;;;;;;;;;;;;;;;3.03;97.78;98319.34;3225145;23;19931;-81
2022/04/26 06:22:58;;;;;;;;;;;;;;;3.16;97.92;98314.19;3224744;22;19920;-82
2022/04/26 06:24:13;;;;;;;;;;;;;;;3.19;98.06;98314.19;3225149;23;19924;-85
2022/04/26 06:25:29;;;;;;;;;;;;;;;3.30;97.38;98317.63;3224651;22;20251;-81
2022/04/26 06:26:44;;;;;;;;;;;;;;;3.41;97.07;98314.13;3224697;22;19942;-81
2022/04/26 06:28:00;;;;;;;;;;;;;;;3.53;97.04;98312.41;3224721;23;19962;-81
2022/04/26 06:29:15;;;;;;;;;;;;;;;3.67;96.45;98303.75;3224814;22;20347;-81
2022/04/26 06:30:31;;;;;;;;;;;;;;;3.79;96.04;98306.31;3224751;23;19935;-79
2022/04/26 06:31:47;;;;;;;;;;;;;;;3.91;94.96;98300.22;3225127;22;19953;-82
2022/04/26 06:33:02;;;;;;;;;;;;;;;3.98;95.74;98314.03;3225007;23;19924;-79
2022/04/26 06:34:18;;;;;;;;;;;;;;;4.03;94.88;98303.66;3225243;23;19977;-82
2022/04/26 06:35:33;;;;;;;;;;;;;;;4.02;95.78;98304.53;3224952;23;20343;-81
2022/04/26 06:36:48;;;;;;;;;;;;;;;4.12;95.24;98307.94;3224846;23;19923;-81
2022/04/26 06:38:04;;;;;;;;;;;;;;;4.19;94.75;98312.19;3225206;23;19923;-81
2022/04/26 06:39:20;;;;;;;;;;;;;;;4.14;94.29;98312.25;3224310;22;19930;-81
2022/04/26 06:40:35;;;;;;;;;;;;;;;4.20;94.50;98306.19;3225217;23;19924;-83
2022/04/26 06:41:50;;;;;;;;;;;;;;;4.29;94.11;98313.03;3224758;23;19934;-81
2022/04/26 06:43:06;;;;;;;;;;;;;;;4.37;93.46;98312.13;3224624;22;19992;-81
2022/04/26 06:44:21;;;;;;;;;;;;;;;4.34;93.09;98314.75;3224572;23;19920;-81
2022/04/26 06:45:37;;;;;;;;;;;;;;;4.39;93.90;98314.69;3225015;22;19920;-80
2022/04/26 06:46:52;;;;;;;;;;;;;;;4.47;94.01;98314.66;3224784;22;20002;-81
2022/04/26 06:48:08;;;;;;;;;;;;;;;4.51;94.45;98311.19;3224852;23;19927;-80
2022/04/26 06:49:24;;;;;;;;;;;;;;;4.64;94.24;98315.44;3224898;22;19920;-82
2022/04/26 06:50:39;;;;;;;;;;;;;;;4.71;92.52;98310.22;3224724;22;19951;-79
2022/04/26 06:51:55;;;;;;;;;;;;;;;4.72;92.47;98310.22;3224749;22;19923;-81
2022/04/26 06:53:10;;;;;;;;;;;;;;;4.60;93.02;98303.34;3223858;23;20066;-81
2022/04/26 06:54:26;;;;;;;;;;;;;;;4.72;91.96;98305.03;3224378;22;19924;-82
2022/04/26 06:55:41;;;;;;;;;;;;;;;4.70;93.69;98303.28;3224796;23;20041;-83
2022/04/26 06:56:57;;;;;;;;;;;;;;;4.74;93.17;98308.47;3224845;22;19981;-87
2022/04/26 06:58:12;;;;;;;;;;;;;;;4.83;92.12;98306.69;3224504;23;20402;-85
2022/04/26 06:59:28;;;;;;;;;;;;;;;4.89;91.56;98307.50;3224180;23;20354;-83
2022/04/26 07:00:43;;;;;;;;;;;;;;;4.87;91.85;98303.19;3223730;23;20291;-82
2022/04/26 07:01:58;;;;;;;;;;;;;;;4.94;93.54;98304.84;3224087;23;20362;-81
2022/04/26 07:03:14;;;;;;;;;;;;;;;4.97;93.87;98299.66;3224763;23;19932;-82
2022/04/26 07:04:30;;;;;;;;;;;;;;;4.98;93.01;98305.69;3224697;22;19945;-82
2022/04/26 07:05:46;;;;;;;;;;;;;;;5.02;91.63;98303.06;3225097;22;20289;-82
2022/04/26 07:07:01;;;;;;;;;;;;;;;4.92;91.89;98304.88;3224931;22;19970;-83
2022/04/26 07:08:17;;;;;;;;;;;;;;;5.05;92.04;98307.38;3224663;22;20003;-83
2022/04/26 07:09:32;;;;;;;;;;;;;;;5.12;92.44;98306.44;3225087;23;20165;-83
2022/04/26 07:10:48;;;;;;;;;;;;;;;5.11;93.23;98304.72;3224824;23;19930;-83
2022/04/26 07:12:03;;;;;;;;;;;;;;;5.11;91.38;98302.13;3225210;22;19927;-83
2022/04/26 07:13:20;;;;;;;;;;;;;;;5.20;91.01;98304.66;3224844;22;19923;-84
2022/04/26 07:14:36;;;;;;;;;;;;;;;5.16;91.01;98299.50;3224914;22;19935;-84
2022/04/26 07:15:52;;;;;;;;;;;;;;;5.17;91.93;98296.03;3224909;22;19923;-83
2022/04/26 07:17:07;;;;;;;;;;;;;;;5.37;92.40;98298.44;3224804;23;20313;-83
2022/04/26 07:18:23;;;;;;;;;;;;;;;5.42;91.94;98293.22;3224848;23;19924;-84
2022/04/26 07:19:39;;;;;;;;;;;;;;;5.55;93.68;98291.34;3224505;23;19924;-84
2022/04/26 07:20:54;;;;;;;;;;;;;;;5.62;92.52;98290.44;3224652;22;19924;-83
2022/04/26 07:22:10;;;;;;;;;;;;;;;5.71;92.24;98294.66;3224988;22;19970;-84
2022/04/26 07:23:26;;;;;;;;;;;;;;;5.86;93.17;98285.81;3224439;23;19926;-83
2022/04/26 07:24:41;;;;;;;;;;;;;;;5.73;91.65;98291.19;3224767;23;20327;-82
2022/04/26 07:25:57;;;;;;;;;;;;;;;5.77;91.64;98292.88;3224785;22;19921;-86
2022/04/26 07:27:13;;;;;;;;;;;;;;;5.84;90.67;98287.59;3224806;22;19970;-83
2022/04/26 07:28:29;;;;;;;;;;;;;;;5.80;90.98;98292.81;3224668;23;19928;-83
2022/04/26 07:29:48;;;;;;;;;;;;;;;5.85;90.99;98295.38;3224797;22;19954;-90
2022/04/26 07:31:05;;;;;;;;;;;;;;;5.84;90.44;98290.19;3224823;22;19923;-84
2022/04/26 07:34:20;;;;;;;;;;;;;;;5.84;90.55;98292.78;3224660;22;19947;-85
2022/04/26 07:35:29;;;;;;;;;;;;;;;5.92;90.63;98285.78;3224203;23;19920;-85
2022/04/26 07:36:45;;;;;;;;;;;;;;;6.06;90.54;98289.09;3224447;22;19931;-88
2022/04/26 07:38:06;;;;;;;;;;;;;;;6.16;91.42;98287.22;3224559;23;19928;-88
2022/04/26 07:39:22;;;;;;;;;;;;;;;6.30;92.41;98286.19;3224611;22;20282;-84
2022/04/26 07:40:38;;;;;;;;;;;;;;;6.47;93.01;98294.63;3224579;22;19998;-85
2022/04/26 07:41:54;;;;;;;;;;;;;;;6.48;91.94;98279.91;3224631;22;19924;-83
2022/04/26 07:43:09;;;;;;;;;;;;;;;6.73;92.67;98284.75;3224325;22;20253;-83
2022/04/26 07:44:25;;;;;;;;;;;;;;;6.73;90.17;98285.59;3224200;23;20002;-82
2022/04/26 07:45:41;;;;;;;;;;;;;;;6.75;89.76;98285.56;3224753;23;20378;-83
2022/04/26 07:46:57;;;;;;;;;;;;;;;6.81;89.97;98282.03;3224395;22;19923;-83
2022/04/26 07:48:16;;;;;;;;;;;;;;;6.95;89.95;98279.19;3224771;22;20052;-82
2022/04/26 07:49:31;;;;;;;;;;;;;;;7.03;90.07;98277.34;3224718;22;20377;-83
2022/04/26 07:50:48;;;;;;;;;;;;;;;7.27;90.82;98281.28;3224839;23;19923;-84
2022/04/26 07:52:03;;;;;;;;;;;;;;;7.34;88.24;98280.28;3224958;22;20216;-83
2022/04/26 07:53:18;;;;;;;;;;;;;;;7.49;88.39;98279.13;3224295;23;19923;-83
2022/04/26 07:54:35;;;;;;;;;;;;;;;7.69;87.70;98280.53;3224307;23;19923;-83
2022/04/26 07:55:51;;;;;;;;;;;;;;;7.90;87.02;98275.78;3224934;22;20497;-82
2022/04/26 07:57:06;;;;;;;;;;;;;;;8.14;87.05;98287.47;3224370;23;19923;-83
2022/04/26 07:58:21;;;;;;;;;;;;;;;8.31;83.88;98284.50;3224477;23;19979;-84
2022/04/26 07:59:37;;;;;;;;;;;;;;;8.36;81.01;98286.16;3224362;23;19923;-83
2022/04/26 08:00:52;;;;;;;;;;;;;;;8.53;81.57;98276.25;3224307;22;19930;-84
2022/04/26 08:02:08;;;;;;;;;;;;;;;8.73;82.09;98278.41;3224424;23;19923;-83
2022/04/26 08:03:23;;;;;;;;;;;;;;;8.89;80.39;98278.88;3224066;22;20163;-84
2022/04/26 08:04:41;;;;;;;;;;;;;;;9.01;80.26;98277.75;3224712;23;19924;-83
2022/04/26 08:05:56;;;;;;;;;;;;;;;9.06;80.74;98280.22;3224434;22;20392;-86
2022/04/26 08:07:11;;;;;;;;;;;;;;;9.19;79.50;98280.81;3224392;23;19923;-84
2022/04/26 08:08:27;;;;;;;;;;;;;;;9.43;80.66;98278.47;3224512;23;20343;-84
2022/04/26 08:09:43;;;;;;;;;;;;;;;9.57;79.21;98280.69;3224593;23;19930;-82
2022/04/26 08:11:00;;;;;;;;;;;;;;;9.65;77.08;98276.16;3224824;22;19998;-82
2022/04/26 08:12:15;;;;;;;;;;;;;;;9.81;78.08;98275.72;3224185;22;20260;-83
2022/04/26 08:13:30;;;;;;;;;;;;;;;9.85;76.82;98278.22;3224102;23;20306;-82
2022/04/26 08:14:46;;;;;;;;;;;;;;;10.04;78.02;98281.16;3224835;23;19930;-82
2022/04/26 08:16:01;;;;;;;;;;;;;;;10.22;75.82;98275.44;3224862;22;20006;-87
2022/04/26 08:17:17;;;;;;;;;;;;;;;10.28;74.22;98276.13;3224250;23;19987;-83
2022/04/26 08:18:33;;;;;;;;;;;;;;;10.32;75.57;98279.50;3224219;23;20266;-86
2022/04/26 08:19:48;;;;;;;;;;;;;;;10.38;72.33;98276.69;3223898;22;19923;-81
2022/04/26 08:21:07;;;;;;;;;;;;;;;10.48;73.41;98274.72;3224499;23;19930;-87
2022/04/26 08:22:22;;;;;;;;;;;;;;;10.58;74.30;98272.66;3224578;22;19943;-83
2022/04/26 08:28:40;;;;;;;;;;;;;;;10.85;70.72;98278.78;3181006;23;19942;-82
2022/04/26 08:29:57;;;;;;;;;;;;;;;11.00;70.52;98273.94;3175982;23;19927;-82
2022/04/26 08:31:13;;;;;;;;;;;;;;;11.11;67.14;98279.72;3175301;23;19924;-82
2022/04/26 08:32:39;;;;;;;;;;;;;;;11.05;68.68;98284.28;3194122;22;19994;-82
2022/04/26 08:33:54;;;;;;;;;;;;;;;11.20;69.73;98277.69;3224279;22;19923;-82
2022/04/26 08:35:11;;;;;;;;;;;;;;;11.13;69.10;98282.28;3224370;23;20000;-82
2022/04/26 08:36:26;;;;;;;;;;;;;;;11.11;71.16;98290.19;3224227;22;19923;-82
2022/04/26 08:37:43;;;;;;;;;;;;;;;11.13;68.78;98288.38;3224549;23;19985;-82
2022/04/26 08:38:58;;;;;;;;;;;;;;;11.21;64.90;98289.91;3224544;22;19959;-81
2022/04/26 08:40:14;;;;;;;;;;;;;;;11.21;64.13;98285.50;3224156;23;19920;-82
2022/04/26 08:41:30;;;;;;;;;;;;;;;11.21;66.71;98287.28;3224438;22;19920;-81
2022/04/26 08:42:46;;;;;;;;;;;;;;;11.28;68.04;98286.16;3224214;22;19927;-81
2022/04/26 08:44:07;;;;;;;;;;;;;;;11.41;69.34;98286.59;3224254;23;19927;-82
2022/04/26 08:45:22;;;;;;;;;;;;;;;11.31;66.31;98286.03;3229241;22;19926;-83
2022/04/26 08:51:21;;;;;;;;;;;;;;;11.24;66.00;98285.38;3228922;23;19919;-84
2022/04/26 08:52:49;;;;;;;;;;;;;;;11.04;66.47;98285.19;3224346;22;19924;-81
2022/04/26 08:54:06;;;;;;;;;;;;;;;11.18;65.47;98290.84;3224361;22;19930;-82
2022/04/26 08:55:22;;;;;;;;;;;;;;;11.13;64.67;98287.53;3224030;22;19927;-81
2022/04/26 08:56:37;;;;;;;;;;;;;;;11.16;67.32;98282.19;3224393;23;20455;-81
2022/04/26 08:57:53;;;;;;;;;;;;;;;11.31;69.02;98278.19;3224387;23;20220;-83
2022/04/26 08:59:08;;;;;;;;;;;;;;;11.62;68.14;98282.41;3224168;23;19924;-85
2022/04/26 09:00:24;;;;;;;;;;;;;;;11.92;67.08;98276.97;3224304;23;19923;-86
2022/04/26 09:01:39;;;;;;;;;;;;;;;12.11;65.14;98286.81;3224417;22;19929;-80
2022/04/26 09:03:02;;;;;;;;;;;;;;;12.17;63.53;98281.34;3223843;23;20042;-82
2022/04/26 09:04:17;;;;;;;;;;;;;;;12.40;61.52;98282.22;3224456;23;19919;-81
2022/04/26 09:05:33;;;;;;;;;;;;;;;12.45;59.43;98282.06;3224242;23;20745;-81
2022/04/26 09:06:48;;;;;;;;;;;;;;;12.41;56.82;98274.31;3224492;22;20115;-82
2022/04/26 09:08:20;;;;;;;;;;;;;;;12.51;58.61;98272.19;3224147;22;20042;-81
2022/04/26 09:09:38;;;;;;;;;;;;;;;12.52;57.79;98271.25;3224144;22;20872;-82
2022/04/26 09:10:53;;;;;;;;;;;;;;;12.58;56.91;98272.81;3223973;22;19923;-80
2022/04/26 09:12:12;;;;;;;;;;;;;;;12.52;57.48;98271.25;3224382;23;20305;-80
2022/04/26 09:13:36;;;;;;;;;;;;;;;12.47;58.16;98273.22;3223704;22;19923;-83
2022/04/26 09:14:51;;;;;;;;;;;;;;;12.59;58.87;98273.66;3222924;23;19934;-81
2022/04/26 09:16:14;;;;;;;;;;;;;;;12.64;58.43;98275.19;3223625;23;19943;-81
2022/04/26 09:17:30;;;;;;;;;;;;;;;12.71;57.71;98270.53;3228907;22;20002;-81
2022/04/26 09:18:53;;;;;;;;;;;;;;;12.79;55.43;98273.72;3224086;23;19923;-83
2022/04/26 09:20:09;;;;;;;;;;;;;;;12.87;56.66;98275.22;3224278;22;20370;-82
2022/04/26 09:21:28;;;;;;;;;;;;;;;13.08;53.81;98274.31;3222959;22;19977;-84
2022/04/26 09:22:47;;;;;;;;;;;;;;;13.28;55.72;98272.66;3223632;22;20262;-81
2022/04/26 09:24:04;;;;;;;;;;;;;;;13.30;54.60;98269.94;3223695;22;19970;-83
2022/04/26 09:25:20;;;;;;;;;;;;;;;13.20;54.94;98278.25;3224078;22;20295;-83
2022/04/26 09:26:36;;;;;;;;;;;;;;;13.14;55.19;98275.84;3224372;23;19978;-82
2022/04/26 09:27:56;;;;;;;;;;;;;;;13.25;55.63;98275.38;3223448;22;19928;-82
2022/04/26 09:29:18;;;;;;;;;;;;;;;13.34;54.64;98269.75;3224218;22;20599;-82
2022/04/26 09:30:35;;;;;;;;;;;;;;;13.45;54.18;98271.97;3228914;22;19923;-80
2022/04/26 09:31:59;;;;;;;;;;;;;;;13.45;52.16;98277.22;3223973;22;19938;-82
2022/04/26 09:33:30;;;;;;;;;;;;;;;13.21;51.87;98276.44;3228533;22;19923;-80
2022/04/26 09:34:46;;;;;;;;;;;;;;;12.73;53.40;98270.50;3223643;22;20335;-81
2022/04/26 09:36:02;;;;;;;;;;;;;;;12.84;53.52;98271.75;3223431;23;19949;-81
2022/04/26 09:37:18;;;;;;;;;;;;;;;13.20;53.33;98272.97;3223948;22;19947;-80
2022/04/26 09:38:33;;;;;;;;;;;;;;;13.20;54.04;98266.84;3224072;22;20125;-80
2022/04/26 09:39:59;;;;;;;;;;;;;;;13.44;53.15;98269.41;3223864;22;19969;-81
2022/04/26 09:41:15;;;;;;;;;;;;;;;13.63;52.67;98270.31;3223958;22;19924;-83
2022/04/26 09:42:31;;;;;;;;;;;;;;;13.83;53.01;98271.25;3223756;22;19923;-84
2022/04/26 09:44:03;;;;;;;;;;;;;;;13.93;51.62;98271.69;3223680;22;19930;-81
2022/04/26 09:45:18;;;;;;;;;;;;;;;13.79;52.16;98274.91;3223872;22;20330;-81
2022/04/26 09:46:40;;;;;;;;;;;;;;;13.93;50.28;98264.63;3223984;23;19919;-81
2022/04/26 09:47:58;;;;;;;;;;;;;;;14.19;52.99;98267.88;3224068;23;19927;-81
2022/04/26 09:49:15;;;;;;;;;;;;;;;14.45;51.89;98265.81;3223804;23;20354;-80
2022/04/26 09:50:31;;;;;;;;;;;;;;;14.49;52.14;98262.09;3223941;22;19927;-81
2022/04/26 09:51:46;;;;;;;;;;;;;;;14.57;49.26;98261.72;3223824;22;19927;-81
2022/04/26 09:53:02;;;;;;;;;;;;;;;14.73;51.37;98263.66;3224151;22;19923;-82
2022/04/26 09:54:17;;;;;;;;;;;;;;;14.78;49.77;98264.31;3223895;22;19924;-81
2022/04/26 09:55:33;;;;;;;;;;;;;;;14.74;49.93;98263.59;3223726;22;20480;-84
2022/04/26 09:56:48;;;;;;;;;;;;;;;14.83;50.83;98265.81;3224018;23;19966;-83
2022/04/26 09:58:04;;;;;;;;;;;;;;;15.00;48.73;98264.13;3223846;22;19927;-82
2022/04/26 09:59:29;;;;;;;;;;;;;;;14.74;48.61;98262.75;3223644;22;19919;-82
2022/04/26 10:00:48;;;;;;;;;;;;;;;14.37;48.93;98255.63;3223920;22;20408;-81
2022/04/26 10:02:07;;;;;;;;;;;;;;;14.10;48.89;98255.97;3223841;22;19923;-81
2022/04/26 10:03:28;;;;;;;;;;;;;;;14.15;50.22;98262.81;3223554;22;20383;-81
2022/04/26 10:04:46;;;;;;;;;;;;;;;13.93;51.37;98258.53;3223771;22;19974;-81
2022/04/26 10:06:03;;;;;;;;;;;;;;;13.99;50.46;98258.22;3223729;22;20350;-82
2022/04/26 10:07:19;;;;;;;;;;;;;;;14.13;50.75;98266.34;3223994;22;19923;-81
2022/04/26 10:08:35;;;;;;;;;;;;;;;14.31;51.78;98260.34;3223888;22;19978;-81
2022/04/26 10:09:50;;;;;;;;;;;;;;;14.13;50.06;98263.72;3224380;22;19947;-82
2022/04/26 10:11:06;;;;;;;;;;;;;;;14.40;50.45;98259.91;3224264;22;19927;-80
2022/04/26 10:12:22;;;;;;;;;;;;;;;14.34;50.27;98255.78;3223509;23;19924;-81
2022/04/26 10:13:43;;;;;;;;;;;;;;;14.16;48.77;98253.97;3223884;22;19919;-80
2022/04/26 10:14:59;;;;;;;;;;;;;;;14.26;48.06;98261.41;3224199;22;19947;-81
2022/04/26 10:16:21;;;;;;;;;;;;;;;14.15;49.79;98261.03;3223989;22;19966;-81
2022/04/26 10:17:47;;;;;;;;;;;;;;;13.89;49.42;98254.28;3223664;22;19924;-85
2022/04/26 10:19:04;;;;;;;;;;;;;;;13.98;48.73;98254.75;3223799;22;19923;-81
2022/04/26 10:20:52;;;;;;;;;;;;;;;14.19;47.37;98251.22;3223807;22;19927;-81
2022/04/26 10:22:08;;;;;;;;;;;;;;;13.95;47.38;98239.09;3159602;23;19924;-82
2022/04/26 10:23:23;;;;;;;;;;;;;;;14.10;48.26;98250.72;3221043;22;20532;-80
2022/04/26 10:24:42;;;;;;;;;;;;;;;14.54;48.49;98251.34;3224302;22;20050;-82
2022/04/26 10:27:36;;;;;;;;;;;;;;;14.81;47.51;98246.59;3204523;22;19938;-83
2022/04/26 10:28:58;;;;;;;;;;;;;;;14.94;47.74;98244.19;3223883;23;19928;-82
2022/04/26 10:30:13;;;;;;;;;;;;;;;15.32;48.97;98239.72;3223623;22;19927;-81
2022/04/26 10:31:39;;;;;;;;;;;;;;;15.59;46.49;98236.59;3223830;22;19923;-81
2022/04/26 10:32:54;;;;;;;;;;;;;;;15.50;48.81;98236.13;3223691;22;19924;-82
2022/04/26 10:34:31;;;;;;;;;;;;;;;15.77;50.88;98233.00;3223529;23;20031;-84